D/T METAR WX W/DIR W/SPE G/SPE TEMP DEWP
7/12/19 22:50 EGXP 072250Z AUTO 21020KT 9999 // OVC013/// 09/07 Q0999 SSW (210°) 23.0mph 9°C 7°C
7/12/19 21:50 EGXP 072150Z AUTO 22022KT 9999 // OVC009/// 09/07 Q1001 SW (220°) 25.3mph 9°C 7°C
7/12/19 20:50 EGXP 072050Z AUTO 22019KT 9999 // BKN009/// 09/07 Q1002 SW (220°) 21.9mph 9°C 7°C
7/12/19 19:50 EGXP 071950Z AUTO 22018KT 9999 // BKN012/// 08/07 Q1003 SW (220°) 20.7mph 8°C 7°C
7/12/19 18:50 EGXP 071850Z AUTO 22016KT 9999 // BKN013/// SCT190/// 09/07 Q1005 SW (220°) 18.4mph 9°C 7°C
7/12/19 17:50 EGXP 071750Z AUTO 22015KT 9999 // BKN190/// 08/06 Q1006 SW (220°) 17.3mph 8°C 6°C
7/12/19 16:50 EGXP 071650Z AUTO 22020KT 9999 // BKN037/// BKN190/// 09/06 Q1007 SW (220°) 23.0mph 9°C 6°C
7/12/19 15:50 EGXP 071550Z AUTO 22011KT 9999 // FEW038/// 09/06 Q1008 SW (220°) 12.7mph 9°C 6°C
7/12/19 14:50 EGXP 071450Z AUTO 24011KT 9999 // SCT070/// 09/06 Q1008 WSW (240°) 12.7mph 9°C 6°C
7/12/19 13:50 EGXP 071350Z AUTO 23013KT 9999 // FEW026/// 09/06 Q1008 SW (230°) 15.0mph 9°C 6°C
7/12/19 12:50 EGXP 071250Z AUTO 24015KT 9999 // FEW027/// 10/07 Q1009 WSW (240°) 17.3mph 10°C 7°C
7/12/19 11:50 EGXP 071150Z AUTO 24010KT 9999 // BKN023/// 09/07 Q1010 WSW (240°) 11.5mph 9°C 7°C
7/12/19 10:50 EGXP 071050Z AUTO 24012KT 9999 // FEW035/// BKN090/// 09/07 Q1010 WSW (240°) 13.8mph 9°C 7°C
7/12/19 09:50 EGXP 070950Z AUTO 25013KT 9999 // BKN035/// 08/06 Q1010 WSW (250°) 15.0mph 8°C 6°C
7/12/19 08:50 EGXP 070850Z AUTO 24010KT 9999 // BKN036/// 07/06 Q1010 WSW (240°) 11.5mph 7°C 6°C
7/12/19 07:50 EGXP 070750Z AUTO 25013KT 9999 // FEW022/// SCT036/// 07/06 Q1009 WSW (250°) 15.0mph 7°C 6°C
7/12/19 06:50 EGXP 070650Z AUTO 25010KT 9999 // BKN022/// BKN038/// 08/06 Q1009 WSW (250°) 11.5mph 8°C 6°C
7/12/19 05:50 EGXP 070550Z AUTO 24010KT 9999 // SCT023/// BKN039/// 08/06 Q1008 WSW (240°) 11.5mph 8°C 6°C
7/12/19 04:50 EGXP 070450Z AUTO 25010KT 9999 // BKN022/// SCT029/// BKN039/// 08/07 Q1008 WSW (250°) 11.5mph 8°C 7°C
7/12/19 03:50 EGXP 070350Z AUTO 25010KT 9999 // BKN027/// BKN038/// 08/07 Q1007 WSW (250°) 11.5mph 8°C 7°C
7/12/19 02:50 EGXP 070250Z AUTO 25010KT 9999 // SCT026/// BKN030/// 08/07 Q1007 WSW (250°) 11.5mph 8°C 7°C
7/12/19 01:50 EGXP 070150Z AUTO 25011KT 9999 // BKN024/// BKN035/// 08/06 Q1006 WSW (250°) 12.7mph 8°C 6°C
7/12/19 00:50 EGXP 070050Z AUTO 27012KT 9999 // OVC033/// 08/06 Q1006 W (270°) 13.8mph 8°C 6°C
6/12/19 23:50 EGXP 062350Z AUTO 26010KT 9999 // BKN035/// 08/06 Q1005 W (260°) 11.5mph 8°C 6°C
6/12/19 22:50 EGXP 062250Z AUTO 27011KT 9999 // NCD 07/06 Q1004 W (270°) 12.7mph 7°C 6°C
6/12/19 21:50 EGXP 062150Z AUTO 26011KT 9999 // NCD 07/05 Q1003 W (260°) 12.7mph 7°C 5°C
6/12/19 20:50 EGXP 062050Z AUTO 27012KT 9999 // SCT036/// 08/06 Q1003 W (270°) 13.8mph 8°C 6°C
6/12/19 19:50 EGXP 061950Z AUTO 27013KT 9999 // FEW023/// BKN036/// 08/06 Q1001 W (270°) 15.0mph 8°C 6°C
6/12/19 18:50 EGXP 061850Z AUTO 27014KT 9999 // FEW023/// BKN033/// 09/07 Q1000 W (270°) 16.1mph 9°C 7°C
6/12/19 17:50 EGXP 061750Z AUTO 27014KT 9999 // BKN024/// BKN031/// 09/07 Q0999 W (270°) 16.1mph 9°C 7°C
6/12/19 16:50 EGXP 061650Z AUTO 27015KT 9999 // FEW023/// BKN027/// 09/07 Q0998 W (270°) 17.3mph 9°C 7°C
6/12/19 15:50 EGXP 061550Z AUTO 27011KT 9999 // SCT023/// BKN050/// 10/08 Q0997 W (270°) 12.7mph 10°C 8°C
6/12/19 14:50 EGXP 061450Z AUTO 26016KT 9999 // BKN023/// SCT050/// 11/08 Q0996 W (260°) 18.4mph 11°C 8°C
6/12/19 13:50 EGXP 061350Z AUTO 25014KT 9999 // FEW015/// BKN033/// 11/10 Q0996 WSW (250°) 16.1mph 11°C 10°C
6/12/19 12:50 EGXP 061250Z 24013G23KT 9999 VCSH FEW005 SCT023 12/11 Q0996 VCSH WSW (240°) 15.0mph 26.5mph 12°C 11°C
6/12/19 11:50 EGXP 061150Z 24018KT 9999 FEW009 SCT015 12/10 Q0997 RMK WHT WSW (240°) 20.7mph 12°C 10°C
6/12/19 11:26 EGXP 061126Z 23017KT 9999 SCT015 BKN020 12/11 Q0997 RMK WHT SW (230°) 19.6mph 12°C 11°C
6/12/19 10:50 EGXP 061050Z 23018KT 9999 SCT008 BKN015 BKN022 11/11 Q0998 RMK GRN SW (230°) 20.7mph 11°C 11°C
6/12/19 09:50 EGXP 060950Z 23015KT 9999 4000W VCSH SCT007 BKN014 BKN020 11/11 Q0999 RMK GRN VCSH SW (230°) 17.3mph 11°C 11°C
6/12/19 08:50 EGXP 060850Z 23016KT 9999 BKN011 BKN023 11/10 Q0999 RMK GRN SW (230°) 18.4mph 11°C 10°C
6/12/19 07:50 EGXP 060750Z 22017KT 9999 BKN010 BKN015 11/10 Q0999 RMK GRN SW (220°) 19.6mph 11°C 10°C
6/12/19 06:50 EGXP 060650Z AUTO 21016KT 9999 // BKN007/// SCT050/// 11/10 Q1000 SSW (210°) 18.4mph 11°C 10°C
6/12/19 05:50 EGXP 060550Z AUTO 22017KT 9999 // OVC009/// 11/10 Q1001 SW (220°) 19.6mph 11°C 10°C
6/12/19 04:50 EGXP 060450Z AUTO 22018KT 9999 // BKN013/// 11/10 Q1002 SW (220°) 20.7mph 11°C 10°C
6/12/19 03:50 EGXP 060350Z AUTO 22014KT 9999 // BKN009/// BKN028/// 10/10 Q1002 SW (220°) 16.1mph 10°C 10°C
6/12/19 02:50 EGXP 060250Z AUTO 23018KT 9999 // SCT026/// BKN080/// 11/09 Q1003 SW (230°) 20.7mph 11°C 9°C
6/12/19 01:50 EGXP 060150Z AUTO 22010KT 9999 // SCT019/// BKN031/// 11/09 Q1003 SW (220°) 11.5mph 11°C 9°C
6/12/19 00:50 EGXP 060050Z AUTO 22014KT 9999 // BKN018/// 10/09 Q1004 SW (220°) 16.1mph 10°C 9°C